createdAt,value
2022-11-02T00:00:53.217Z,15.50
2022-11-02T00:03:31.141Z,15.47
2022-11-02T00:05:59.240Z,15.45
2022-11-02T00:08:26.733Z,15.42
2022-11-02T00:10:54.522Z,15.41
2022-11-02T00:13:22.173Z,15.39
2022-11-02T00:15:50.088Z,15.32
2022-11-02T00:18:17.789Z,15.29
2022-11-02T00:20:45.816Z,15.22
2022-11-02T00:23:14.823Z,15.19
2022-11-02T00:25:47.028Z,15.12
2022-11-02T00:28:15.657Z,15.06
2022-11-02T00:30:44.441Z,15.02
2022-11-02T00:33:12.251Z,14.99
2022-11-02T00:35:41.269Z,14.93
2022-11-02T00:38:08.931Z,14.88
2022-11-02T00:40:36.886Z,14.82
2022-11-02T00:43:06.308Z,14.78
2022-11-02T00:45:34.348Z,14.74
2022-11-02T00:48:02.295Z,14.69
2022-11-02T00:50:31.327Z,14.64
2022-11-02T00:52:58.891Z,14.57
2022-11-02T00:55:26.760Z,14.50
2022-11-02T00:57:59.172Z,14.42
2022-11-02T01:00:27.136Z,14.38
2022-11-02T01:02:54.645Z,14.33
2022-11-02T01:05:22.432Z,14.28
2022-11-02T01:07:50.059Z,14.26
2022-11-02T01:10:17.951Z,14.24
2022-11-02T01:12:47.513Z,14.21
2022-11-02T01:15:15.406Z,14.20
2022-11-02T01:17:42.872Z,14.18
2022-11-02T01:20:11.397Z,14.16
2022-11-02T01:22:39.007Z,14.15
2022-11-02T01:25:07.974Z,14.12
2022-11-02T01:27:35.710Z,14.11
2022-11-02T01:30:05.656Z,14.09
2022-11-02T01:32:33.319Z,14.05
2022-11-02T01:35:02.837Z,13.98
2022-11-02T01:37:30.357Z,13.92
2022-11-02T01:39:58.264Z,13.82
2022-11-02T01:42:28.556Z,13.76
2022-11-02T01:44:57.506Z,13.73
2022-11-02T01:47:36.145Z,13.71
2022-11-02T01:50:19.122Z,13.68
2022-11-02T01:52:46.856Z,13.66
2022-11-02T01:55:26.210Z,13.62
2022-11-02T01:58:00.975Z,13.64
2022-11-02T02:00:28.940Z,13.65
2022-11-02T02:03:21.360Z,13.65
2022-11-02T02:06:13.878Z,13.61
2022-11-02T02:08:46.253Z,13.61
2022-11-02T02:11:37.548Z,13.59
2022-11-02T02:14:18.776Z,13.56
2022-11-02T02:17:25.077Z,13.53
2022-11-02T02:20:10.314Z,13.52
2022-11-02T02:23:25.401Z,13.46
2022-11-02T02:26:32.428Z,13.42
2022-11-02T02:29:09.048Z,13.39
2022-11-02T02:31:38.786Z,13.37
2022-11-02T02:34:21.013Z,13.37
2022-11-02T02:37:08.105Z,13.32
2022-11-02T02:39:44.349Z,13.31
2022-11-02T02:42:43.936Z,13.29
2022-11-02T02:45:23.322Z,13.26
2022-11-02T02:48:26.793Z,13.26
2022-11-02T02:51:02.275Z,13.22
2022-11-02T02:53:41.947Z,13.20
2022-11-02T02:56:12.143Z,13.18
2022-11-02T02:58:56.935Z,13.14
2022-11-02T03:01:26.523Z,13.16
2022-11-02T03:03:54.621Z,13.13
2022-11-02T03:06:35.425Z,13.09
2022-11-02T03:09:30.201Z,13.07
2022-11-02T03:12:06.978Z,13.06
2022-11-02T03:14:58.859Z,13.08
2022-11-02T03:18:06.099Z,13.12
2022-11-02T03:20:59.051Z,13.18
2022-11-02T03:23:37.872Z,13.20
2022-11-02T03:26:36.424Z,13.24
2022-11-02T03:29:09.863Z,13.21
2022-11-02T03:31:56.938Z,13.22
2022-11-02T03:34:45.695Z,13.18
2022-11-02T03:37:26.288Z,13.19
2022-11-02T03:40:25.612Z,13.16
2022-11-02T03:42:56.247Z,13.06
2022-11-02T03:45:30.024Z,12.95
2022-11-02T03:48:06.936Z,12.89
2022-11-02T03:50:37.815Z,12.87
2022-11-02T03:53:40.946Z,12.83
2022-11-02T03:56:23.141Z,12.82
2022-11-02T03:58:51.683Z,12.80
2022-11-02T04:01:21.167Z,12.78
2022-11-02T04:03:50.023Z,12.76
2022-11-02T04:06:19.819Z,12.71
2022-11-02T04:08:49.756Z,12.60
2022-11-02T04:11:39.168Z,12.59
2022-11-02T04:14:30.396Z,12.58
2022-11-02T04:17:18.411Z,12.58
2022-11-02T04:19:50.074Z,12.58
2022-11-02T04:22:39.326Z,12.60
2022-11-02T04:25:18.587Z,12.56
2022-11-02T04:28:15.188Z,12.50
2022-11-02T04:30:49.600Z,12.44
2022-11-02T04:33:34.797Z,12.38
2022-11-02T04:36:14.647Z,12.25
2022-11-02T04:38:43.333Z,12.20
2022-11-02T04:41:40.019Z,12.09
2022-11-02T04:44:14.635Z,11.97
2022-11-02T04:46:45.247Z,11.92
2022-11-02T04:49:14.798Z,11.94
2022-11-02T04:51:48.691Z,11.90
2022-11-02T04:54:19.464Z,11.88
2022-11-02T04:56:51.204Z,11.84
2022-11-02T04:59:21.347Z,11.82
2022-11-02T05:01:49.405Z,11.78
2022-11-02T05:04:17.723Z,11.73
2022-11-02T05:06:46.961Z,11.60
2022-11-02T05:09:14.764Z,11.59
2022-11-02T05:11:45.965Z,11.52
2022-11-02T05:14:13.776Z,11.49
2022-11-02T05:16:41.470Z,11.45
2022-11-02T05:19:11.100Z,11.45
2022-11-02T05:21:40.465Z,11.36
2022-11-02T05:24:11.821Z,11.33
2022-11-02T05:26:39.885Z,11.34
2022-11-02T05:29:09.431Z,11.36
2022-11-02T05:31:37.956Z,11.42
2022-11-02T05:34:06.319Z,11.42
2022-11-02T05:36:33.939Z,11.43
2022-11-02T05:39:02.425Z,11.46
2022-11-02T05:41:30.215Z,11.50
2022-11-02T05:44:00.130Z,11.51
2022-11-02T05:46:29.483Z,11.43
2022-11-02T05:48:57.298Z,11.34
2022-11-02T05:51:25.003Z,11.34
2022-11-02T05:53:52.819Z,11.36
2022-11-02T05:56:24.791Z,11.38
2022-11-02T05:58:55.699Z,11.43
2022-11-02T06:01:23.585Z,11.44
2022-11-02T06:03:53.749Z,11.40
2022-11-02T06:06:22.099Z,11.35
2022-11-02T06:08:49.962Z,11.25
2022-11-02T06:11:17.788Z,11.19
2022-11-02T06:13:49.473Z,11.16
2022-11-02T06:16:22.629Z,11.09
2022-11-02T06:18:50.812Z,11.09
2022-11-02T06:21:18.587Z,11.09
2022-11-02T06:23:49.792Z,11.14
2022-11-02T06:26:17.422Z,11.18
2022-11-02T06:28:45.229Z,11.17
2022-11-02T06:31:31.083Z,11.22
2022-11-02T06:33:58.887Z,11.18
2022-11-02T06:36:26.465Z,11.17
2022-11-02T06:38:54.260Z,11.21
2022-11-02T06:41:22.256Z,11.24
2022-11-02T06:43:50.165Z,11.29
2022-11-02T06:46:17.895Z,11.29
2022-11-02T06:48:48.419Z,11.26
2022-11-02T06:51:16.329Z,11.28
2022-11-02T06:53:44.112Z,11.30
2022-11-02T06:56:12.499Z,11.33
2022-11-02T06:58:40.580Z,11.35
2022-11-02T07:01:08.998Z,11.30
2022-11-02T07:03:37.309Z,11.28
2022-11-02T07:06:09.692Z,11.33
2022-11-02T07:08:40.696Z,11.36
2022-11-02T07:11:08.244Z,11.35
2022-11-02T07:13:37.823Z,11.39
2022-11-02T07:16:05.700Z,11.39
2022-11-02T07:18:33.402Z,11.41
2022-11-02T07:21:01.715Z,11.44
2022-11-02T07:23:29.735Z,11.44
2022-11-02T07:25:57.226Z,11.36
2022-11-02T07:28:24.977Z,11.37
2022-11-02T07:30:55.488Z,11.37
2022-11-02T07:33:23.484Z,11.39
2022-11-02T07:35:51.131Z,11.44
2022-11-02T07:38:19.111Z,11.49
2022-11-02T07:40:50.890Z,11.50
2022-11-02T07:43:18.655Z,11.55
2022-11-02T07:45:57.487Z,11.55
2022-11-02T07:48:25.279Z,11.51
2022-11-02T07:50:52.789Z,11.48
2022-11-02T07:53:20.570Z,11.49
2022-11-02T07:55:48.124Z,11.48
2022-11-02T07:58:15.899Z,11.50
2022-11-02T08:00:43.664Z,11.52
2022-11-02T08:03:12.635Z,11.55
2022-11-02T08:05:42.877Z,11.60
2022-11-02T08:08:17.791Z,11.71
2022-11-02T08:10:48.125Z,11.73
2022-11-02T08:13:20.499Z,11.69
2022-11-02T08:15:52.906Z,11.72
2022-11-02T08:18:23.605Z,11.76
2022-11-02T08:20:51.631Z,11.76
2022-11-02T08:23:21.004Z,11.86
2022-11-02T08:25:50.893Z,12.04
2022-11-02T08:28:32.236Z,12.27
2022-11-02T08:31:00.003Z,12.42
2022-11-02T08:33:31.571Z,12.58
2022-11-02T08:36:06.277Z,12.70
2022-11-02T08:38:34.369Z,12.78
2022-11-02T08:41:04.468Z,12.78
2022-11-02T08:43:32.311Z,12.76
2022-11-02T08:46:17.228Z,12.77
2022-11-02T08:48:45.572Z,12.77
2022-11-02T08:51:13.204Z,12.79
2022-11-02T08:53:41.172Z,12.79
2022-11-02T08:56:08.733Z,12.78
2022-11-02T08:58:36.581Z,12.81
2022-11-02T09:01:04.137Z,12.84
2022-11-02T09:03:32.203Z,12.87
2022-11-02T09:06:02.101Z,12.90
2022-11-02T09:08:31.451Z,12.96
2022-11-02T09:11:03.787Z,13.01
2022-11-02T09:13:31.836Z,13.03
2022-11-02T09:16:00.747Z,13.03
2022-11-02T09:18:28.941Z,13.05
2022-11-02T09:20:57.075Z,13.10
2022-11-02T09:23:28.285Z,13.15
2022-11-02T09:25:56.014Z,13.22
2022-11-02T09:28:23.880Z,13.30
2022-11-02T09:30:51.353Z,13.32
2022-11-02T09:33:19.491Z,13.31
2022-11-02T09:35:49.262Z,13.29
2022-11-02T09:38:18.709Z,13.32
2022-11-02T09:40:56.195Z,13.35
2022-11-02T09:43:33.077Z,13.38
2022-11-02T09:46:16.839Z,13.38
2022-11-02T09:48:56.123Z,13.34
2022-11-02T09:51:56.725Z,13.30
2022-11-02T09:54:40.890Z,13.28
2022-11-02T09:57:38.628Z,13.22
2022-11-02T10:00:13.186Z,13.23
2022-11-02T10:03:06.206Z,13.28
2022-11-02T10:05:34.774Z,13.32
2022-11-02T10:08:44.349Z,13.33
2022-11-02T10:11:28.192Z,13.38
2022-11-02T10:14:23.258Z,13.39
2022-11-02T10:17:29.965Z,13.34
2022-11-02T10:20:05.137Z,13.30
2022-11-02T10:22:41.591Z,13.28
2022-11-02T10:25:16.046Z,13.31
2022-11-02T10:27:48.916Z,13.21
2022-11-02T10:30:20.556Z,13.14
2022-11-02T10:32:53.028Z,13.06
2022-11-02T10:36:23.961Z,12.99
2022-11-02T10:39:24.719Z,13.00
2022-11-02T10:42:10.487Z,13.03
2022-11-02T10:45:12.043Z,13.11
2022-11-02T10:48:11.353Z,13.10
2022-11-02T10:51:08.946Z,13.07
2022-11-02T10:53:44.054Z,13.09
2022-11-02T10:56:25.323Z,13.10
2022-11-02T10:59:14.190Z,13.09
2022-11-02T11:01:57.305Z,13.08
2022-11-02T11:04:28.391Z,13.04
2022-11-02T11:06:57.378Z,13.08
2022-11-02T11:09:36.995Z,13.09
2022-11-02T11:12:38.562Z,13.10
2022-11-02T11:20:44.447Z,12.77
2022-11-02T11:23:26.365Z,12.84
2022-11-02T11:25:57.672Z,12.88
2022-11-02T11:28:32.528Z,12.90
2022-11-02T11:31:17.740Z,12.95
2022-11-02T11:33:58.491Z,13.05
2022-11-02T11:36:36.069Z,13.15
2022-11-02T11:39:29.537Z,13.12
2022-11-02T11:41:58.528Z,13.16
2022-11-02T11:44:26.598Z,13.08
2022-11-02T11:46:58.706Z,12.96
2022-11-02T11:50:03.092Z,12.95
2022-11-02T11:52:31.963Z,13.00
2022-11-02T11:55:19.143Z,13.01
2022-11-02T11:57:46.860Z,13.05
2022-11-02T12:00:29.795Z,13.10
2022-11-02T12:03:12.163Z,13.18
2022-11-02T12:05:51.870Z,13.24
2022-11-02T12:08:42.392Z,13.29
2022-11-02T12:12:03.502Z,13.28
2022-11-02T12:15:07.084Z,13.28
2022-11-02T12:17:35.044Z,13.31
2022-11-02T12:20:36.118Z,13.34
2022-11-02T12:23:39.172Z,13.38
2022-11-02T12:26:49.068Z,13.41
2022-11-02T12:30:04.185Z,13.42
2022-11-02T12:32:52.667Z,13.43
2022-11-02T12:35:48.444Z,13.45
2022-11-02T12:39:30.079Z,13.47
2022-11-02T12:42:25.841Z,13.40
2022-11-02T12:45:26.703Z,13.41
2022-11-02T12:48:02.288Z,13.41
2022-11-02T12:50:54.801Z,13.44
2022-11-02T12:53:31.595Z,13.45
2022-11-02T12:56:04.133Z,13.47
2022-11-02T12:58:37.360Z,13.47
2022-11-02T13:01:27.536Z,13.49
2022-11-02T13:04:02.205Z,13.50
2022-11-02T13:06:39.833Z,13.49
2022-11-02T13:09:29.116Z,13.51
2022-11-02T13:12:15.509Z,13.53
2022-11-02T13:15:06.652Z,13.49
2022-11-02T13:17:49.750Z,13.43
2022-11-02T13:20:42.717Z,13.39
2022-11-02T13:23:34.632Z,13.38
2022-11-02T13:26:23.817Z,13.41
2022-11-02T13:29:06.735Z,13.42
2022-11-02T13:32:09.945Z,13.46
2022-11-02T13:34:45.181Z,13.47
2022-11-02T13:37:35.611Z,13.44
2022-11-02T13:40:26.099Z,13.42
2022-11-02T13:43:47.728Z,13.39
2022-11-02T13:46:47.844Z,13.34
2022-11-02T13:49:43.404Z,13.24
2022-11-02T13:52:36.839Z,13.23
2022-11-02T13:55:07.829Z,13.25
2022-11-02T13:57:45.919Z,13.27
2022-11-02T14:00:31.017Z,13.30
2022-11-02T14:03:17.960Z,13.27
2022-11-02T14:06:00.782Z,13.24
2022-11-02T14:09:07.774Z,13.29
2022-11-02T14:11:47.874Z,13.29
2022-11-02T14:14:23.089Z,13.32
2022-11-02T14:16:50.863Z,13.35
2022-11-02T14:19:20.285Z,13.38
2022-11-02T14:21:51.263Z,13.39
2022-11-02T14:24:34.179Z,13.42
2022-11-02T14:27:23.374Z,13.41
2022-11-02T14:29:54.579Z,13.39
2022-11-02T14:32:26.671Z,13.40
2022-11-02T14:35:27.919Z,13.40
2022-11-02T14:38:36.343Z,13.43
2022-11-02T14:41:16.403Z,13.50
2022-11-02T14:43:59.167Z,13.52
2022-11-02T14:46:46.552Z,13.55
2022-11-02T14:49:37.433Z,13.56
2022-11-02T14:52:23.178Z,13.60
2022-11-02T14:55:19.861Z,13.58
2022-11-02T14:58:00.822Z,13.57
2022-11-02T15:00:47.452Z,13.55
2022-11-02T15:03:24.331Z,13.54
2022-11-02T15:06:13.906Z,13.54
2022-11-02T15:08:58.716Z,13.55
2022-11-02T15:12:01.372Z,13.54
2022-11-02T15:14:35.873Z,13.55
2022-11-02T15:17:15.352Z,13.52
2022-11-02T15:20:16.084Z,13.55
2022-11-02T15:23:28.476Z,13.54
2022-11-02T15:25:59.973Z,13.51
2022-11-02T15:28:32.611Z,13.50
2022-11-02T15:31:06.588Z,13.45
2022-11-02T15:33:44.366Z,13.41
2022-11-02T15:36:39.684Z,13.36
2022-11-02T15:39:10.729Z,13.35
2022-11-02T15:42:03.382Z,13.36
2022-11-02T15:44:45.941Z,13.33
2022-11-02T15:47:28.666Z,13.32
2022-11-02T15:50:17.768Z,13.34
2022-11-02T15:53:23.504Z,13.37
2022-11-02T15:56:25.504Z,13.40
2022-11-02T15:59:25.720Z,13.39
2022-11-02T16:02:29.921Z,13.37
2022-11-02T16:05:01.850Z,13.32
2022-11-02T16:07:38.384Z,13.30
2022-11-02T16:10:36.746Z,13.32
2022-11-02T16:13:17.224Z,13.33
2022-11-02T16:15:48.973Z,13.32
2022-11-02T16:18:44.860Z,13.29
2022-11-02T16:21:17.911Z,13.25
2022-11-02T16:23:53.966Z,13.26
2022-11-02T16:26:29.482Z,13.27
2022-11-02T16:28:59.912Z,13.30
2022-11-02T16:31:32.959Z,13.32
2022-11-02T16:34:15.811Z,13.34
2022-11-02T16:36:44.041Z,13.33
2022-11-02T16:39:23.166Z,13.28
2022-11-02T16:41:56.294Z,13.21
2022-11-02T16:44:36.100Z,13.19
2022-11-02T16:47:07.222Z,13.22
2022-11-02T16:49:58.172Z,13.23
2022-11-02T16:52:37.940Z,13.26
2022-11-02T16:55:35.449Z,13.29
2022-11-02T16:58:09.571Z,13.27
2022-11-02T17:00:37.411Z,13.26
2022-11-02T17:03:14.480Z,13.29
2022-11-02T17:05:47.827Z,13.31
2022-11-02T17:08:35.515Z,13.34
2022-11-02T17:11:05.906Z,13.30
2022-11-02T17:13:43.511Z,13.32
2022-11-02T17:16:13.636Z,13.32
2022-11-02T17:18:42.030Z,13.31
2022-11-02T17:21:26.162Z,13.32
2022-11-02T17:23:55.378Z,13.34
2022-11-02T17:26:22.952Z,13.38
2022-11-02T17:28:59.648Z,13.41
2022-11-02T17:31:41.241Z,13.44
2022-11-02T17:34:17.574Z,13.44
2022-11-02T17:36:49.006Z,13.45
2022-11-02T17:39:20.237Z,13.43
2022-11-02T17:42:17.014Z,13.42
2022-11-02T17:44:45.729Z,13.35
2022-11-02T17:47:17.787Z,13.33
2022-11-02T17:49:45.401Z,13.32
2022-11-02T17:52:16.404Z,13.27
2022-11-02T17:54:44.235Z,13.25
2022-11-02T17:57:15.257Z,13.30
2022-11-02T17:59:42.791Z,13.34
2022-11-02T18:02:15.781Z,13.35
2022-11-02T18:07:16.774Z,13.29
2022-11-02T18:09:44.302Z,13.27
2022-11-02T18:12:15.988Z,13.32
2022-11-02T18:14:43.640Z,13.35
2022-11-02T18:17:11.694Z,13.37
2022-11-02T18:19:39.385Z,13.38
2022-11-02T18:22:09.386Z,13.44
2022-11-02T18:24:37.519Z,13.51
2022-11-02T18:27:05.310Z,13.54
2022-11-02T18:29:32.762Z,13.56
2022-11-02T18:32:00.522Z,13.59
2022-11-02T18:34:28.012Z,13.63
2022-11-02T18:36:55.962Z,13.67
2022-11-02T18:39:23.751Z,13.70
2022-11-02T18:41:53.421Z,13.72
2022-11-02T18:44:24.318Z,13.71
2022-11-02T18:46:57.773Z,13.62
2022-11-02T18:49:27.459Z,13.59
2022-11-02T18:51:55.459Z,13.60
2022-11-02T18:54:23.005Z,13.61
2022-11-02T18:56:50.957Z,13.62
2022-11-02T18:59:18.458Z,13.62
2022-11-02T19:01:46.662Z,13.60
2022-11-02T19:04:17.445Z,13.58
2022-11-02T19:07:04.957Z,13.57
2022-11-02T19:09:33.681Z,13.57
2022-11-02T19:12:07.908Z,13.54
2022-11-02T19:14:46.893Z,13.55
2022-11-02T19:17:15.178Z,13.54
2022-11-02T19:19:49.181Z,13.53
2022-11-02T19:22:21.246Z,13.54
2022-11-02T19:24:49.664Z,13.56
2022-11-02T19:27:25.491Z,13.55
2022-11-02T19:29:53.088Z,13.56
2022-11-02T19:32:21.822Z,13.57
2022-11-02T19:34:50.556Z,13.57
2022-11-02T19:37:19.372Z,13.57
2022-11-02T19:39:49.601Z,13.58
2022-11-02T19:42:18.148Z,13.58
2022-11-02T19:44:46.640Z,13.57
2022-11-02T19:47:14.686Z,13.57
2022-11-02T19:49:43.322Z,13.59
2022-11-02T19:52:11.523Z,13.56
2022-11-02T19:54:39.076Z,13.57
2022-11-02T19:57:11.044Z,13.56
2022-11-02T19:59:38.776Z,13.58
2022-11-02T20:02:06.758Z,13.59
2022-11-02T20:04:41.035Z,13.61
2022-11-02T20:07:10.278Z,13.60
2022-11-02T20:09:37.865Z,13.62
2022-11-02T20:12:07.599Z,13.64
2022-11-02T20:14:37.106Z,13.67
2022-11-02T20:17:29.693Z,13.67
2022-11-02T20:19:52.474Z,13.67
2022-11-02T20:22:20.282Z,13.64
2022-11-02T20:24:47.872Z,13.62
2022-11-02T20:27:15.765Z,13.60
2022-11-02T20:29:43.387Z,13.54
2022-11-02T20:32:12.579Z,13.54
2022-11-02T20:34:40.221Z,13.51
2022-11-02T20:37:09.363Z,13.53
2022-11-02T20:39:36.904Z,13.47
2022-11-02T20:42:04.943Z,13.42
2022-11-02T20:44:32.943Z,13.42
2022-11-02T20:47:00.913Z,13.43
2022-11-02T20:49:49.409Z,13.45
2022-11-02T20:52:16.400Z,13.42
2022-11-02T20:54:43.970Z,13.43
2022-11-02T20:57:11.831Z,13.43
2022-11-02T20:59:39.656Z,13.44
2022-11-02T21:02:12.585Z,13.49
2022-11-02T21:04:40.504Z,13.54
2022-11-02T21:07:08.356Z,13.56
2022-11-02T21:09:39.190Z,13.59
2022-11-02T21:12:26.073Z,13.59
2022-11-02T21:14:53.647Z,13.60
2022-11-02T21:17:21.596Z,13.60
2022-11-02T21:19:57.987Z,13.61
2022-11-02T21:22:36.684Z,13.58
2022-11-02T21:25:04.553Z,13.52
2022-11-02T21:27:32.475Z,13.50
2022-11-02T21:30:00.063Z,13.51
2022-11-02T21:32:28.005Z,13.52
2022-11-02T21:34:55.560Z,13.54
2022-11-02T21:37:23.743Z,13.53
2022-11-02T21:39:51.256Z,13.51
2022-11-02T21:42:19.209Z,13.50
2022-11-02T21:44:46.771Z,13.54
2022-11-02T21:47:16.940Z,13.54
2022-11-02T21:49:44.499Z,13.56
2022-11-02T21:52:13.794Z,13.56
2022-11-02T21:54:41.350Z,13.52
2022-11-02T21:57:09.245Z,13.46
2022-11-02T21:59:36.739Z,13.44
2022-11-02T22:02:04.800Z,13.48
2022-11-02T22:04:32.510Z,13.48
2022-11-02T22:07:01.105Z,13.50
2022-11-02T22:09:29.286Z,13.55
2022-11-02T22:12:16.128Z,13.61
2022-11-02T22:14:44.928Z,13.62
2022-11-02T22:17:35.389Z,13.57
2022-11-02T22:20:01.590Z,13.56
2022-11-02T22:22:29.218Z,13.56
2022-11-02T22:24:56.991Z,13.52
2022-11-02T22:27:24.492Z,13.53
2022-11-02T22:29:52.332Z,13.54
2022-11-02T22:32:19.880Z,13.57
2022-11-02T22:34:48.038Z,13.62
2022-11-02T22:37:34.297Z,13.64
2022-11-02T22:40:02.234Z,13.70
2022-11-02T22:42:29.694Z,13.73
2022-11-02T22:44:58.596Z,13.75
2022-11-02T22:47:26.467Z,13.77
2022-11-02T22:49:54.469Z,13.81
2022-11-02T22:52:21.999Z,13.79
2022-11-02T22:54:50.481Z,13.77
2022-11-02T22:57:17.944Z,13.76
2022-11-02T22:59:45.809Z,13.74
2022-11-02T23:02:13.402Z,13.69
2022-11-02T23:04:41.411Z,13.68
2022-11-02T23:07:09.060Z,13.69
2022-11-02T23:09:37.050Z,13.68
2022-11-02T23:12:04.789Z,13.63
2022-11-02T23:14:32.845Z,13.63
2022-11-02T23:17:00.580Z,13.68
2022-11-02T23:19:33.099Z,13.68
2022-11-02T23:22:23.687Z,13.71
2022-11-02T23:25:14.228Z,13.72
2022-11-02T23:28:14.606Z,13.71
2022-11-02T23:31:02.280Z,13.71
2022-11-02T23:33:48.189Z,13.71
2022-11-02T23:36:16.391Z,13.73
2022-11-02T23:39:05.379Z,13.74
2022-11-02T23:41:36.822Z,13.76
2022-11-02T23:44:19.014Z,13.76
2022-11-02T23:46:51.197Z,13.79
2022-11-02T23:49:19.351Z,13.79
2022-11-02T23:52:06.080Z,13.82
2022-11-02T23:54:52.213Z,13.82
2022-11-02T23:57:22.500Z,13.82
2022-11-02T23:59:50.700Z,13.86
